Holland, Vermont
Current Conditions -  °F | °C
As of 1:55 PM on Sunday 23 Nov 2014 (Local Time) from KEFK Reporting Station
Overcast Overcast  
Wind Chill: 38°   Ceiling: 1700
Heat Index: 42°   Visibility: 10mi
Dew Point: 38°   Wind: 6mph
Humidity: 88%   Direction: 170°S
Pressure: 30.05"   Gusts: NA
Location:  44.9734°N, 72.0075°W
Report Text: KEFK 231855Z AUTO 17005KT 10SM OVC017 05/04 A3005 RMK AO2 T00540035
Loading
Personal Weather Stations






























Interactive Weather Map New forecast layout! Learn more

10-Day Weather Forecast

Advertisements
Track Severe Weather on mobile